Time;durP1;ratioP1;P1;durP2;ratioP2;P2;SDS_P1;SDS_P2;PMS_P1;PMS_P2;Temp;Humidity;BMP_temperature;BMP_pressure;BME280_temperature;BME280_humidity;BME280_pressure;Samples;Min_cycle;Max_cycle;Signal;HPM_P1;HPM_P2
2022/09/26 00:00:42;;;;;;;8.30;5.72;;;;;;;10.37;100.00;67925.63;5055707;28;20056;-80
2022/09/26 00:03:08;;;;;;;8.43;6.13;;;;;;;;;;5063275;28;20123;-80
2022/09/26 00:05:34;;;;;;;9.38;6.47;;;;;;;;;;5061254;28;20411;-79
2022/09/26 00:07:59;;;;;;;9.70;6.93;;;;;;;10.42;100.00;67926.00;5059530;28;20117;-79
2022/09/26 00:10:24;;;;;;;10.93;6.70;;;;;;;;;;5060929;28;20045;-78
2022/09/26 00:12:50;;;;;;;10.10;6.87;;;;;;;;;;5055565;28;20576;-79
2022/09/26 00:15:15;;;;;;;9.07;7.03;;;;;;;;;;5050822;28;20892;-79
2022/09/26 00:17:40;;;;;;;9.25;6.43;;;;;;;;;;5067728;28;20045;-79
2022/09/26 00:20:06;;;;;;;9.65;6.25;;;;;;;;;;5055713;28;20052;-79
2022/09/26 00:22:31;;;;;;;9.02;6.07;;;;;;;10.38;100.00;67921.44;5050533;28;20045;-79
2022/09/26 00:24:57;;;;;;;9.05;6.65;;;;;;;10.38;100.00;67922.00;5049321;28;20040;-79
2022/09/26 00:27:22;;;;;;;10.38;6.75;;;;;;;;;;5054865;28;20415;-79
2022/09/26 00:29:48;;;;;;;12.20;7.68;;;;;;;;;;5053753;28;20554;-79
2022/09/26 00:32:13;;;;;;;7.60;5.20;;;;;;;10.34;100.00;67914.81;5053060;28;20054;-78
2022/09/26 00:34:38;;;;;;;8.68;6.47;;;;;;;10.39;100.00;67922.59;5067380;28;20052;-79
2022/09/26 00:37:03;;;;;;;9.60;6.10;;;;;;;;;;5044374;28;20037;-79
2022/09/26 00:39:29;;;;;;;8.30;5.95;;;;;;;10.36;100.00;67919.75;5057571;28;20120;-79
2022/09/26 00:41:54;;;;;;;9.65;5.25;;;;;;;10.35;100.00;67923.38;5049229;28;20719;-79
2022/09/26 00:44:41;;;;;;;10.13;5.25;;;;;;;10.35;100.00;67923.94;5054312;28;20037;-79
2022/09/26 00:47:34;;;;;;;8.02;6.03;;;;;;;10.35;100.00;67918.03;5059294;28;20092;-78
2022/09/26 00:50:03;;;;;;;11.30;5.68;;;;;;;;;;5056062;28;20048;-79
2022/09/26 00:52:40;;;;;;;7.57;5.70;;;;;;;10.41;100.00;67924.84;5060106;28;20071;-79
2022/09/26 00:55:08;;;;;;;9.15;5.95;;;;;;;10.41;100.00;67930.16;5053170;28;20402;-79
2022/09/26 00:57:45;;;;;;;9.50;6.22;;;;;;;;;;5056261;28;20311;-79
2022/09/26 01:00:13;;;;;;;8.52;5.93;;;;;;;10.39;100.00;67927.91;5056704;28;20059;-79
2022/09/26 01:02:39;;;;;;;7.70;5.45;;;;;;;;;;5058678;28;20121;-79
2022/09/26 01:05:06;;;;;;;7.78;5.80;;;;;;;10.39;100.00;67922.59;5057499;28;20040;-79
2022/09/26 01:07:32;;;;;;;7.45;5.22;;;;;;;10.43;100.00;67926.56;5060011;28;20084;-79
2022/09/26 01:09:58;;;;;;;6.97;5.00;;;;;;;;;;5055025;28;20486;-79
2022/09/26 01:12:24;;;;;;;13.50;5.82;;;;;;;10.45;100.00;67934.72;5054302;28;20064;-79
2022/09/26 01:14:51;;;;;;;7.80;6.32;;;;;;;10.43;100.00;67926.56;5053611;28;20388;-78
2022/09/26 01:17:17;;;;;;;8.48;5.55;;;;;;;10.43;100.00;67927.13;5054722;28;20040;-79
2022/09/26 01:19:42;;;;;;;8.93;5.93;;;;;;;;;;5050005;28;20036;-78
2022/09/26 01:22:26;;;;;;;9.10;5.80;;;;;;;10.48;100.00;67932.81;5052926;28;20085;-79
2022/09/26 01:25:24;;;;;;;10.98;5.95;;;;;;;10.48;100.00;67932.81;5052838;28;20278;-78
2022/09/26 01:28:01;;;;;;;8.05;5.78;;;;;;;10.42;100.00;67926.00;5046006;28;20064;-78
2022/09/26 01:30:39;;;;;;;6.78;5.55;;;;;;;10.44;100.00;67933.56;5052113;28;20098;-78
2022/09/26 01:33:17;;;;;;;9.57;6.07;;;;;;;;;;5060316;28;20052;-79
2022/09/26 01:36:00;;;;;;;10.10;7.10;;;;;;;;;;5059160;28;20048;-79
2022/09/26 01:38:32;;;;;;;10.90;6.97;;;;;;;;;;5055704;28;20044;-79
2022/09/26 01:41:27;;;;;;;9.88;6.70;;;;;;;10.52;100.00;67936.75;5048722;28;20185;-79
2022/09/26 01:44:14;;;;;;;10.82;7.00;;;;;;;;;;5049690;28;20695;-79
2022/09/26 01:47:17;;;;;;;8.77;6.35;;;;;;;10.54;100.00;67939.59;5034157;28;20052;-79
2022/09/26 01:49:59;;;;;;;8.85;6.15;;;;;;;10.52;100.00;67942.66;5052500;28;20044;-79
2022/09/26 01:52:36;;;;;;;7.82;6.22;;;;;;;10.51;100.00;67941.53;5067799;28;20051;-78
2022/09/26 01:55:04;;;;;;;10.07;5.72;;;;;;;10.55;100.00;67940.72;5044627;28;20044;-78
2022/09/26 01:57:40;;;;;;;9.73;6.32;;;;;;;10.57;100.00;67942.44;5050461;28;20045;-78
2022/09/26 02:00:06;;;;;;;10.32;6.13;;;;;;;;;;5049338;28;20404;-78
2022/09/26 02:02:38;;;;;;;8.88;5.95;;;;;;;10.60;100.00;67943.19;5056511;28;20041;-79
2022/09/26 02:05:12;;;;;;;10.30;6.65;;;;;;;10.64;100.00;67955.13;5052893;28;20127;-78
2022/09/26 02:07:54;;;;;;;10.25;6.03;;;;;;;10.64;100.00;67949.81;5059510;28;20572;-78
2022/09/26 02:10:25;;;;;;;8.18;5.93;;;;;;;;;;5047939;28;20106;-78
2022/09/26 02:12:56;;;;;;;10.05;6.05;;;;;;;10.68;100.00;67954.94;5047370;28;20047;-77
2022/09/26 02:15:25;;;;;;;7.53;5.10;;;;;;;10.68;100.00;67959.69;5046247;28;20045;-77
2022/09/26 02:18:19;;;;;;;9.07;5.90;;;;;;;10.68;100.00;67951.69;5056433;28;20043;-78
2022/09/26 02:20:49;;;;;;;7.20;5.72;;;;;;;;;;5051108;28;20127;-77
2022/09/26 02:23:14;;;;;;;9.40;5.25;;;;;;;;;;5057388;28;20199;-78
2022/09/26 02:25:40;;;;;;;8.98;6.00;;;;;;;10.73;100.00;67960.03;5063246;28;20555;-78
2022/09/26 02:28:05;;;;;;;9.35;6.00;;;;;;;10.71;100.00;67957.78;5057840;28;20662;-77
2022/09/26 02:30:31;;;;;;;10.10;4.32;;;;;;;10.71;100.00;67952.44;5053056;28;20037;-78
2022/09/26 02:32:56;;;;;;;9.13;5.57;;;;;;;;;;5066421;28;20040;-78
2022/09/26 02:38:07;;;;;;;11.40;5.35;;;;;;;10.73;100.00;67965.34;5062044;28;20083;-77
2022/09/26 02:41:26;;;;;;;9.32;6.05;;;;;;;10.71;100.00;67958.34;5060539;28;20037;-78
2022/09/26 02:44:27;;;;;;;8.57;5.65;;;;;;;10.69;100.00;67961.38;5045865;28;20044;-78
2022/09/26 02:47:06;;;;;;;9.25;6.20;;;;;;;10.70;100.00;67956.63;5039627;28;20051;-78
2022/09/26 02:49:40;;;;;;;7.72;6.18;;;;;;;10.74;100.00;67966.50;5074188;28;20056;-78
2022/09/26 02:52:14;;;;;;;8.48;5.40;;;;;;;10.71;100.00;67958.34;5058054;28;20120;-79
2022/09/26 02:55:15;;;;;;;11.02;6.60;;;;;;;10.73;100.00;67965.34;5062528;28;20159;-78
2022/09/26 02:57:49;;;;;;;9.77;6.78;;;;;;;10.73;100.00;67960.03;5041216;28;20454;-78
2022/09/26 03:00:24;;;;;;;10.02;7.35;;;;;;;10.71;100.00;67958.34;5051535;28;20041;-77
2022/09/26 03:03:02;;;;;;;12.68;7.63;;;;;;;10.72;100.00;67958.91;5048275;28;20413;-78
2022/09/26 03:05:29;;;;;;;8.40;5.78;;;;;;;10.73;100.00;67968.00;5048276;28;20132;-78
2022/09/26 03:08:19;;;;;;;8.85;7.15;;;;;;;10.74;100.00;67958.50;5062342;28;20047;-78
2022/09/26 03:10:47;;;;;;;9.60;7.38;;;;;;;10.74;100.00;67961.16;5055123;28;20048;-77
2022/09/26 03:13:15;;;;;;;9.80;7.10;;;;;;;10.72;100.00;67956.78;5050125;28;20053;-78
2022/09/26 03:15:45;;;;;;;9.73;7.32;;;;;;;10.73;100.00;67965.94;5060883;28;20064;-79
2022/09/26 03:18:18;;;;;;;8.98;6.93;;;;;;;10.73;100.00;67960.03;5065782;28;20124;-79
2022/09/26 03:20:43;;;;;;;9.57;7.13;;;;;;;10.74;100.00;67961.16;5056807;28;20109;-76
2022/09/26 03:23:09;;;;;;;9.48;6.43;;;;;;;10.74;100.00;67966.50;5060710;28;20040;-79
2022/09/26 03:25:34;;;;;;;7.82;5.68;;;;;;;10.76;100.00;67963.44;5062743;28;20041;-79
2022/09/26 03:28:01;;;;;;;11.02;7.55;;;;;;;;;;5063987;28;20064;-78
2022/09/26 03:30:27;;;;;;;9.73;6.65;;;;;;;10.75;100.00;67967.63;5053011;28;20105;-78
2022/09/26 03:32:52;;;;;;;10.07;6.93;;;;;;;10.75;100.00;67962.28;5052383;28;20577;-79
2022/09/26 03:35:17;;;;;;;11.70;6.50;;;;;;;10.72;100.00;67964.78;5057192;28;20153;-79
2022/09/26 03:37:43;;;;;;;10.25;6.65;;;;;;;;;;5055393;28;20041;-78
2022/09/26 03:40:10;;;;;;;10.93;6.85;;;;;;;10.73;100.00;67965.34;5063318;28;20455;-80
2022/09/26 03:42:36;;;;;;;9.05;6.30;;;;;;;10.77;100.00;67973.13;5054730;28;20836;-79
2022/09/26 03:45:04;;;;;;;10.02;7.53;;;;;;;10.78;100.00;67966.25;5070873;28;20136;-81
2022/09/26 03:47:30;;;;;;;10.90;6.07;;;;;;;10.80;100.00;67967.97;5045106;28;20048;-78
2022/09/26 03:49:55;;;;;;;8.30;6.45;;;;;;;10.79;100.00;67972.75;5045060;28;20037;-78
2022/09/26 03:52:20;;;;;;;8.55;6.22;;;;;;;10.77;100.00;67970.47;5051658;28;20071;-79
2022/09/26 03:54:46;;;;;;;8.75;6.50;;;;;;;10.78;100.00;67976.34;5062534;28;20040;-80
2022/09/26 03:57:13;;;;;;;8.55;5.53;;;;;;;10.79;100.00;67972.19;5051909;28;20047;-79
2022/09/26 03:59:38;;;;;;;10.52;6.65;;;;;;;;;;5043198;28;20029;-79
2022/09/26 04:02:04;;;;;;;8.35;5.47;;;;;;;10.79;100.00;67972.75;5056402;28;20519;-79
2022/09/26 04:04:31;;;;;;;8.55;6.03;;;;;;;10.80;100.00;67973.88;5060755;28;20470;-79
2022/09/26 04:06:56;;;;;;;11.35;5.93;;;;;;;10.80;100.00;67973.31;5049157;28;20037;-79
2022/09/26 04:09:23;;;;;;;9.13;5.72;;;;;;;10.80;100.00;67968.53;5051438;28;20099;-80
2022/09/26 04:11:48;;;;;;;7.78;5.45;;;;;;;;;;5064267;28;20037;-79
2022/09/26 04:14:14;;;;;;;7.32;4.72;;;;;;;10.79;99.66;67972.75;5053390;28;20056;-79
2022/09/26 04:16:39;;;;;;;7.38;6.30;;;;;;;;;;5074266;28;20072;-79
2022/09/26 04:19:04;;;;;;;9.40;5.60;;;;;;;;;;5056941;28;20037;-80
2022/09/26 04:21:34;;;;;;;10.00;5.50;;;;;;;;;;5060885;28;20037;-80
2022/09/26 04:23:59;;;;;;;9.20;5.28;;;;;;;;;;5054332;28;20303;-79
2022/09/26 04:26:24;;;;;;;7.28;5.07;;;;;;;10.76;99.02;67963.44;5059197;28;20182;-79
2022/09/26 04:28:53;;;;;;;9.18;5.15;;;;;;;;;;5056199;28;20071;-79
2022/09/26 04:31:20;;;;;;;7.50;5.30;;;;;;;;;;5059208;28;20054;-80
2022/09/26 04:33:45;;;;;;;6.72;4.80;;;;;;;10.69;99.44;67960.81;5057282;28;20060;-79
2022/09/26 04:36:11;;;;;;;7.20;5.00;;;;;;;;;;5051584;28;20076;-80
2022/09/26 04:38:38;;;;;;;7.53;5.10;;;;;;;10.67;99.35;67953.78;5053052;28;20079;-80
2022/09/26 04:41:09;;;;;;;6.95;5.30;;;;;;;10.70;98.84;67956.63;5068805;28;20895;-79
2022/09/26 04:43:35;;;;;;;9.15;5.22;;;;;;;10.70;98.71;67956.63;5062421;28;20045;-79
2022/09/26 04:46:04;;;;;;;10.45;4.78;;;;;;;10.65;98.71;67950.97;5064984;28;20040;-79
2022/09/26 04:48:30;;;;;;;8.63;4.13;;;;;;;;;;5061513;28;20037;-79
2022/09/26 04:50:55;;;;;;;7.80;4.75;;;;;;;10.69;98.17;67964.03;5059978;28;20064;-80
2022/09/26 04:53:22;;;;;;;9.43;4.95;;;;;;;10.67;98.28;67953.22;5065235;28;20048;-79
2022/09/26 04:55:48;;;;;;;8.70;4.60;;;;;;;10.68;97.74;67954.38;5051434;28;20066;-79
2022/09/26 04:58:14;;;;;;;10.02;5.47;;;;;;;;;;5058261;28;20032;-78
2022/09/26 05:00:44;;;;;;;8.55;5.10;;;;;;;;;;5052234;28;20048;-78
2022/09/26 05:03:12;;;;;;;7.55;4.90;;;;;;;10.69;97.25;67961.38;5061980;28;20043;-80
2022/09/26 05:05:38;;;;;;;8.18;4.80;;;;;;;;;;5061494;28;20044;-80
2022/09/26 05:08:04;;;;;;;8.07;4.38;;;;;;;10.69;97.35;67960.81;5049067;28;20080;-79
2022/09/26 05:10:29;;;;;;;10.45;4.93;;;;;;;;;;5057995;28;20055;-81
2022/09/26 05:12:57;;;;;;;9.93;5.30;;;;;;;;;;5057428;28;20060;-80
2022/09/26 05:15:22;;;;;;;8.25;4.70;;;;;;;10.67;97.59;67953.78;5062452;28;20346;-81
2022/09/26 05:17:55;;;;;;;7.90;4.18;;;;;;;10.65;98.10;67945.63;5057412;28;20072;-81
2022/09/26 05:20:22;;;;;;;9.27;5.10;;;;;;;;;;5059657;28;20103;-81
2022/09/26 05:22:48;;;;;;;5.85;4.55;;;;;;;;;;5060895;28;20045;-80
2022/09/26 05:27:57;;;;;;;5.55;4.30;;;;;;;10.61;97.88;67946.97;5058644;28;20038;-80
2022/09/26 05:30:24;;;;;;;7.50;5.00;;;;;;;;;;5049698;28;20144;-80
2022/09/26 05:32:50;;;;;;;8.60;4.85;;;;;;;10.61;98.03;67947.53;5060351;28;20044;-79
2022/09/26 05:35:15;;;;;;;9.90;4.80;;;;;;;;;;5046644;28;20060;-81
2022/09/26 05:37:40;;;;;;;10.13;4.72;;;;;;;10.64;97.43;67955.13;5052316;28;20139;-79
2022/09/26 05:42:50;;;;;;;9.50;4.97;;;;;;;;;;5067377;28;20055;-78
2022/09/26 05:45:15;;;;;;;7.80;3.80;;;;;;;;;;5058131;28;20048;-80
2022/09/26 05:47:40;;;;;;;11.27;4.40;;;;;;;10.60;97.48;67946.41;5063279;28;20279;-78
2022/09/26 05:53:27;;;;;;;7.97;4.47;;;;;;;10.61;97.48;67946.97;5039849;28;20068;-79
2022/09/26 05:59:15;;;;;;;6.13;3.80;;;;;;;10.65;96.75;67951.53;5034297;28;20051;-80
2022/09/26 06:01:40;;;;;;;9.65;4.32;;;;;;;10.68;96.72;67951.69;5049249;28;20040;-81
2022/09/26 06:04:05;;;;;;;7.97;3.80;;;;;;;10.66;96.10;67957.97;5072382;28;20071;-78
2022/09/26 06:06:31;;;;;;;8.85;4.05;;;;;;;10.70;96.08;67961.94;5055311;28;20050;-78
2022/09/26 06:08:56;;;;;;;9.80;3.90;;;;;;;;;;5045887;28;20480;-80
2022/09/26 06:11:26;;;;;;;9.77;4.10;;;;;;;10.71;95.89;67957.78;5032624;28;20107;-79
2022/09/26 06:13:51;;;;;;;7.65;4.15;;;;;;;;;;5044368;28;20033;-78
2022/09/26 06:16:19;;;;;;;7.38;3.13;;;;;;;10.72;95.72;67964.22;5047567;28;20526;-78
2022/09/26 06:18:45;;;;;;;7.82;4.50;;;;;;;10.75;95.87;67968.19;5052801;28;20041;-79
2022/09/26 06:21:12;;;;;;;6.53;3.85;;;;;;;;;;5057287;28;20037;-78
2022/09/26 06:23:37;;;;;;;6.43;3.78;;;;;;;10.74;96.11;67961.72;5063349;28;20055;-78
2022/09/26 06:26:07;;;;;;;9.43;4.20;;;;;;;10.76;95.72;67961.34;5055221;28;20037;-81
2022/09/26 06:28:33;;;;;;;8.95;3.17;;;;;;;10.77;95.47;67964.56;5063145;28;20041;-80
2022/09/26 06:30:58;;;;;;;7.55;3.75;;;;;;;;;;5071302;28;20112;-79
2022/09/26 06:33:24;;;;;;;6.93;3.20;;;;;;;10.75;96.02;67968.19;5075666;28;20049;-78
2022/09/26 06:36:18;;;;;;;6.68;3.75;;;;;;;;;;5058941;28;20041;-79
2022/09/26 06:38:44;;;;;;;8.50;3.53;;;;;;;10.77;96.09;67962.47;5032922;28;20047;-76
2022/09/26 06:41:09;;;;;;;7.20;3.95;;;;;;;10.78;96.19;67965.69;5059774;28;20036;-80
2022/09/26 06:43:35;;;;;;;6.95;3.90;;;;;;;10.80;96.57;67973.88;5059320;28;20040;-80
2022/09/26 06:46:00;;;;;;;6.70;3.75;;;;;;;10.80;96.31;67973.88;5050566;28;20044;-77
2022/09/26 06:48:26;;;;;;;7.78;3.80;;;;;;;10.79;96.28;67966.84;5054920;28;20044;-80
2022/09/26 06:50:53;;;;;;;7.50;3.90;;;;;;;10.81;96.58;67974.44;5057793;28;20079;-81
2022/09/26 06:53:18;;;;;;;9.55;3.95;;;;;;;;;;5053653;28;20439;-77
2022/09/26 06:55:44;;;;;;;7.32;4.20;;;;;;;10.79;97.63;67975.41;5053030;28;20085;-79
2022/09/26 06:58:09;;;;;;;6.22;3.40;;;;;;;10.80;97.87;67973.31;5055586;28;20141;-79
2022/09/26 07:00:34;;;;;;;6.47;3.90;;;;;;;;;;5057755;28;20132;-80
2022/09/26 07:03:00;;;;;;;6.88;4.40;;;;;;;;;;5054911;28;20072;-82
2022/09/26 07:05:26;;;;;;;7.97;4.15;;;;;;;;;;5054901;28;20179;-81
2022/09/26 07:07:53;;;;;;;7.05;4.00;;;;;;;10.69;100.00;67955.50;5054460;28;20563;-80
2022/09/26 07:10:19;;;;;;;7.45;4.72;;;;;;;;;;5051804;28;20048;-81
2022/09/26 07:12:46;;;;;;;9.18;4.18;;;;;;;10.66;100.00;67952.09;5051889;28;20047;-79
2022/09/26 07:15:16;;;;;;;8.70;4.20;;;;;;;10.63;100.00;67949.25;5053112;28;20036;-81
2022/09/26 07:17:43;;;;;;;6.85;4.47;;;;;;;10.63;100.00;67949.25;5056973;28;20071;-81
2022/09/26 07:20:10;;;;;;;10.48;4.05;;;;;;;;;;5053057;28;20087;-79
2022/09/26 07:22:36;;;;;;;7.97;4.68;;;;;;;10.59;100.00;67945.28;5050717;28;20395;-80
2022/09/26 07:25:01;;;;;;;7.70;4.60;;;;;;;10.59;100.00;67945.28;5049558;28;20037;-79
2022/09/26 07:27:26;;;;;;;7.10;4.25;;;;;;;10.57;100.00;67943.00;5054164;28;20044;-81
2022/09/26 07:29:52;;;;;;;6.95;4.00;;;;;;;10.57;100.00;67942.44;5052186;28;20068;-79
2022/09/26 07:32:17;;;;;;;8.25;4.30;;;;;;;10.59;100.00;67950.03;5050276;28;20052;-79
2022/09/26 07:34:43;;;;;;;8.05;4.25;;;;;;;;;;5067705;28;20040;-79
2022/09/26 07:37:08;;;;;;;9.30;3.20;;;;;;;;;;5059037;28;20470;-81
2022/09/26 07:39:33;;;;;;;6.75;4.53;;;;;;;10.57;100.00;67940.34;5065077;28;20053;-79
2022/09/26 07:42:02;;;;;;;8.88;4.68;;;;;;;10.64;100.00;67955.69;5047522;28;20040;-79
2022/09/26 07:44:27;;;;;;;10.88;4.35;;;;;;;;;;5047859;28;20500;-80
2022/09/26 07:52:21;;;;;;;9.88;5.15;;;;;;;10.77;100.00;67965.13;5059383;28;21617;-81
2022/09/26 07:54:46;;;;;;;8.25;4.57;;;;;;;10.78;100.00;67965.69;5061784;28;20493;-84
2022/09/26 07:57:13;;;;;;;9.00;4.43;;;;;;;10.83;100.00;67971.38;5049728;28;20044;-80
2022/09/26 07:59:38;;;;;;;9.35;4.38;;;;;;;10.84;100.00;67973.06;5050206;28;20604;-80
2022/09/26 08:02:03;;;;;;;9.98;4.43;;;;;;;;;;5052268;28;20080;-81
2022/09/26 08:04:29;;;;;;;10.98;3.90;;;;;;;;;;5049650;28;20041;-81
2022/09/26 08:06:56;;;;;;;8.68;4.45;;;;;;;10.95;100.00;67982.34;5054258;28;20063;-79
2022/09/26 08:09:21;;;;;;;7.85;4.25;;;;;;;10.97;100.00;67992.03;5044407;28;20061;-80
2022/09/26 08:11:46;;;;;;;10.25;4.10;;;;;;;10.99;100.00;67988.97;5043205;28;20566;-80
2022/09/26 08:14:12;;;;;;;8.52;4.50;;;;;;;;;;5045813;28;20128;-81
2022/09/26 08:16:40;;;;;;;7.43;4.15;;;;;;;11.00;100.00;67990.13;5046813;28;20041;-80
2022/09/26 08:19:07;;;;;;;7.50;4.25;;;;;;;10.99;100.00;67988.97;5047471;28;20045;-80
2022/09/26 08:21:32;;;;;;;9.27;4.65;;;;;;;;;;5054441;28;20682;-81
2022/09/26 08:23:57;;;;;;;9.00;3.88;;;;;;;;;;5052888;28;20044;-80
2022/09/26 08:26:23;;;;;;;7.78;3.55;;;;;;;10.99;100.00;67986.88;5046719;28;20049;-80
2022/09/26 08:28:48;;;;;;;7.03;4.30;;;;;;;11.02;100.00;67992.38;5057255;28;20495;-81
2022/09/26 08:31:15;;;;;;;8.70;3.92;;;;;;;11.03;100.00;67993.50;5043789;28;20511;-83
2022/09/26 08:33:41;;;;;;;7.30;3.80;;;;;;;11.02;100.00;67998.28;5053537;28;20041;-81
2022/09/26 08:36:11;;;;;;;9.75;3.95;;;;;;;11.00;100.00;67990.13;5052131;28;20086;-82
2022/09/26 08:38:37;;;;;;;5.93;3.83;;;;;;;11.02;100.00;67992.94;5062228;28;20133;-81
2022/09/26 08:41:31;;;;;;;7.80;3.90;;;;;;;10.95;100.00;67979.66;5050296;28;20037;-82
2022/09/26 08:44:02;;;;;;;8.85;4.90;;;;;;;;;;5029022;28;20051;-79
2022/09/26 08:46:52;;;;;;;8.60;4.53;;;;;;;10.92;100.00;67981.59;5061682;28;20042;-80
2022/09/26 08:49:21;;;;;;;;;;;;;;;;;;5036934;28;20059;-80
2022/09/26 08:51:48;;;;;;;8.93;5.50;;;;;;;;;;5040560;28;19931;-80
2022/09/26 08:54:36;;;;;;;9.88;5.10;;;;;;;10.76;100.00;67969.34;5043811;28;20037;-81
2022/09/26 08:57:10;;;;;;;9.82;4.18;;;;;;;10.75;100.00;67960.19;5042690;28;20045;-80
2022/09/26 08:59:44;;;;;;;9.35;4.60;;;;;;;10.76;100.00;67963.44;5041353;28;20041;-81
2022/09/26 09:02:22;;;;;;;10.20;4.90;;;;;;;10.72;100.00;67959.47;5037654;28;20041;-82
2022/09/26 09:04:57;;;;;;;8.90;5.63;;;;;;;10.75;100.00;67959.63;5043816;28;20064;-81
2022/09/26 09:07:23;;;;;;;9.57;5.00;;;;;;;;;;5064579;28;20668;-82
2022/09/26 09:09:52;;;;;;;10.38;4.85;;;;;;;10.71;100.00;67958.34;5044921;28;20127;-82
2022/09/26 09:12:23;;;;;;;;;;;;;;;10.71;100.00;67957.78;5048631;28;20048;-79
2022/09/26 09:14:48;;;;;;;9.60;5.75;;;;;;;;;;5045135;28;19917;-81
2022/09/26 09:17:29;;;;;;;11.70;5.03;;;;;;;10.68;100.00;67960.25;5043903;28;20467;-81
2022/09/26 09:19:54;;;;;;;9.88;6.03;;;;;;;10.68;100.00;67959.69;5040114;28;20605;-81
2022/09/26 09:22:43;;;;;;;12.23;6.55;;;;;;;;;;5053540;28;20117;-82
2022/09/26 09:25:08;;;;;;;;;;;;;;;;;;5050569;28;20037;-80
2022/09/26 09:27:49;;;;;;;8.93;6.07;;;;;;;10.63;100.00;67948.69;5041714;28;19979;-81
2022/09/26 09:30:17;;;;;;;8.70;5.85;;;;;;;10.66;100.00;67957.41;5062159;28;20044;-82
2022/09/26 09:33:13;;;;;;;11.23;6.18;;;;;;;10.67;100.00;67953.22;5044449;28;20052;-84
2022/09/26 09:36:05;;;;;;;11.52;5.97;;;;;;;10.75;100.00;67962.28;5042731;28;20048;-84
2022/09/26 09:38:32;;;;;;;8.15;6.25;;;;;;;;;;5051117;28;20044;-82
2022/09/26 09:41:15;;;;;;;12.63;5.22;;;;;;;;;;5045877;28;20065;-83
2022/09/26 09:43:54;;;;;;;9.60;5.25;;;;;;;10.83;100.00;67976.72;5023460;28;20038;-84
2022/09/26 09:46:25;;;;;;;10.20;5.28;;;;;;;10.87;100.00;67980.69;5049019;28;20099;-83
2022/09/26 09:48:53;;;;;;;9.60;5.70;;;;;;;;;;5057497;28;20096;-85
2022/09/26 09:51:28;;;;;;;9.18;5.57;;;;;;;10.90;100.00;67984.06;5048955;28;20048;-82
2022/09/26 09:54:08;;;;;;;9.15;4.40;;;;;;;;;;5054871;28;20404;-81
2022/09/26 09:56:40;;;;;;;9.75;5.30;;;;;;;;;;5057530;28;20041;-82
2022/09/26 09:59:05;;;;;;;7.07;5.25;;;;;;;;;;5044908;28;20041;-82
2022/09/26 10:01:43;;;;;;;9.57;5.63;;;;;;;10.91;100.00;67979.91;5049294;28;20048;-81
2022/09/26 10:04:42;;;;;;;10.82;5.50;;;;;;;10.93;100.00;67982.16;5047962;28;20279;-84
2022/09/26 10:07:08;;;;;;;6.22;4.78;;;;;;;10.94;100.00;67988.63;5042968;28;20029;-81
2022/09/26 10:09:42;;;;;;;8.98;5.53;;;;;;;;;;5037131;28;20340;-83
2022/09/26 10:12:13;;;;;;;8.77;5.60;;;;;;;10.95;100.00;67990.31;5047146;28;20041;-82
2022/09/26 10:14:50;;;;;;;9.68;5.40;;;;;;;10.94;100.00;67983.31;5042381;28;20037;-81
2022/09/26 10:17:19;;;;;;;10.32;5.30;;;;;;;10.94;100.00;67989.19;5056074;28;20036;-85
2022/09/26 10:19:45;;;;;;;8.38;5.13;;;;;;;10.95;100.00;67985.00;5047292;28;20037;-84
2022/09/26 10:22:17;;;;;;;8.27;4.55;;;;;;;;;;5050000;28;20033;-82
2022/09/26 10:24:46;;;;;;;8.18;5.30;;;;;;;10.96;100.00;67990.88;5048289;28;20135;-83
2022/09/26 10:27:35;;;;;;;7.85;5.18;;;;;;;10.94;100.00;67983.31;5054770;28;20129;-84
2022/09/26 10:30:06;;;;;;;8.32;5.03;;;;;;;10.94;100.00;67983.31;5046327;28;20041;-83
2022/09/26 10:32:44;;;;;;;5.97;4.88;;;;;;;10.94;100.00;67989.19;5048239;28;20036;-85
2022/09/26 10:35:18;;;;;;;7.23;5.30;;;;;;;;;;5048801;28;20037;-82
2022/09/26 10:38:26;;;;;;;7.50;4.60;;;;;;;11.01;100.00;67991.81;5057816;28;20271;-85
2022/09/26 10:40:57;;;;;;;7.15;4.85;;;;;;;10.99;100.00;67989.56;5054612;28;20044;-82
2022/09/26 10:43:27;;;;;;;7.72;5.15;;;;;;;11.03;100.00;67998.84;5041495;28;21059;-83
2022/09/26 10:46:03;;;;;;;8.57;5.25;;;;;;;11.04;100.00;67994.66;5047907;28;20037;-81
2022/09/26 10:48:38;;;;;;;8.98;4.90;;;;;;;11.06;100.00;67997.47;5048542;28;20086;-81
2022/09/26 10:51:04;;;;;;;9.27;5.18;;;;;;;11.05;100.00;67996.34;5044561;28;20420;-82
2022/09/26 10:53:35;;;;;;;7.20;5.53;;;;;;;11.06;100.00;67997.47;5052949;28;20075;-83
2022/09/26 10:56:06;;;;;;;7.57;4.57;;;;;;;;;;5049612;28;20029;-84
2022/09/26 10:58:38;;;;;;;7.07;4.15;;;;;;;11.04;100.00;68000.53;5055021;28;20033;-85
2022/09/26 11:01:04;;;;;;;9.23;4.88;;;;;;;11.05;100.00;67993.69;5050922;28;20048;-81
2022/09/26 11:03:40;;;;;;;6.82;4.78;;;;;;;11.07;100.00;67998.03;5048296;28;20065;-81
2022/09/26 11:06:19;;;;;;;9.25;5.43;;;;;;;;;;5044489;28;20120;-83
2022/09/26 11:08:51;;;;;;;7.35;5.32;;;;;;;11.10;100.00;67996.13;5068117;28;20028;-81
2022/09/26 11:11:20;;;;;;;9.07;5.30;;;;;;;11.14;100.00;68006.00;5049897;28;20124;-83
2022/09/26 11:13:46;;;;;;;6.90;5.07;;;;;;;;;;5054485;28;20068;-83
2022/09/26 11:16:18;;;;;;;9.55;5.53;;;;;;;11.22;100.00;68020.41;5053417;28;20036;-81
2022/09/26 11:18:49;;;;;;;8.60;4.97;;;;;;;;;;5053418;28;20077;-83
2022/09/26 11:21:33;;;;;;;7.85;5.35;;;;;;;;;;5056819;28;20049;-83
2022/09/26 11:24:25;;;;;;;8.13;4.95;;;;;;;11.20;100.00;68017.56;5045658;28;20045;-85
2022/09/26 11:27:30;;;;;;;9.30;5.53;;;;;;;11.19;100.00;68011.69;5030029;28;20052;-81
2022/09/26 11:30:10;;;;;;;9.50;6.18;;;;;;;11.18;100.00;68009.97;5036237;28;20057;-82
2022/09/26 11:32:42;;;;;;;9.45;6.07;;;;;;;11.25;100.00;68017.94;5057955;28;20399;-83
2022/09/26 11:35:47;;;;;;;8.05;5.50;;;;;;;11.26;100.00;68019.06;5062242;28;20052;-82
2022/09/26 11:38:21;;;;;;;8.90;6.28;;;;;;;;;;5036275;28;20440;-83
2022/09/26 11:41:06;;;;;;;10.30;5.72;;;;;;;11.32;100.00;68025.31;5058287;28;20048;-84
2022/09/26 11:43:43;;;;;;;7.07;5.15;;;;;;;11.29;100.00;68023.03;5041238;28;20056;-82
2022/09/26 11:46:33;;;;;;;10.82;7.18;;;;;;;11.30;100.00;68023.59;5056427;28;20135;-83
2022/09/26 11:49:12;;;;;;;11.70;6.30;;;;;;;;;;5043393;28;20047;-81
2022/09/26 11:51:50;;;;;;;14.13;7.75;;;;;;;11.37;100.00;68028.88;5049353;28;20626;-82
2022/09/26 11:54:16;;;;;;;;;;;;;;;;;;5065970;28;20110;-82
2022/09/26 11:56:49;;;;;;;8.50;6.57;;;;;;;;;;5050786;28;19952;-82
2022/09/26 11:59:17;;;;;;;10.60;7.75;;;;;;;;;;5052805;28;20045;-81
2022/09/26 12:02:14;;;;;;;10.18;5.28;;;;;;;11.27;100.00;68017.53;5053586;28;20062;-81
2022/09/26 12:04:58;;;;;;;10.00;6.72;;;;;;;11.24;100.00;68016.78;5047454;28;20412;-81
2022/09/26 12:07:59;;;;;;;12.85;7.63;;;;;;;11.27;100.00;68025.50;5061210;28;20052;-82
2022/09/26 12:10:25;;;;;;;10.77;7.15;;;;;;;11.26;100.00;68019.63;5049575;28;20060;-80
2022/09/26 12:13:23;;;;;;;12.63;8.05;;;;;;;11.26;100.00;68016.97;5050188;28;20045;-82
2022/09/26 12:16:08;;;;;;;12.02;8.57;;;;;;;11.29;100.00;68020.38;5046876;28;20090;-82
2022/09/26 12:18:44;;;;;;;14.00;8.77;;;;;;;11.35;100.00;68026.59;5043148;28;20041;-83
2022/09/26 12:21:37;;;;;;;11.57;6.68;;;;;;;11.32;100.00;68025.31;5056840;28;20035;-81
2022/09/26 12:24:04;;;;;;;12.27;7.50;;;;;;;11.34;100.00;68027.59;5048666;28;20049;-81
2022/09/26 12:26:52;;;;;;;12.38;7.65;;;;;;;11.39;100.00;68038.56;5047031;28;20045;-81
2022/09/26 12:29:23;;;;;;;11.25;7.90;;;;;;;;;;5047492;28;20036;-80
2022/09/26 12:31:49;;;;;;;8.98;6.75;;;;;;;;;;5044988;28;20087;-81
2022/09/26 12:34:54;;;;;;;13.10;8.10;;;;;;;11.38;100.00;68032.69;5043948;28;20408;-81
2022/09/26 12:37:58;;;;;;;11.95;8.27;;;;;;;11.40;100.00;68034.38;5047481;28;20036;-82
2022/09/26 12:40:34;;;;;;;9.68;7.38;;;;;;;;;;4985412;28;20084;-81
2022/09/26 12:43:22;;;;;;;10.20;7.30;;;;;;;11.34;100.00;68027.59;4984705;28;20049;-82
2022/09/26 12:46:00;;;;;;;14.07;8.60;;;;;;;11.36;100.00;68027.75;5013300;28;20051;-82
2022/09/26 12:48:34;;;;;;;10.88;7.40;;;;;;;;;;5061675;28;20742;-80
2022/09/26 12:51:15;;;;;;;9.68;6.80;;;;;;;11.36;100.00;68029.84;5039462;28;20037;-80
2022/09/26 12:53:40;;;;;;;12.77;7.70;;;;;;;11.31;100.00;68024.75;5050710;28;20041;-82
2022/09/26 12:56:08;;;;;;;12.27;8.35;;;;;;;11.35;100.00;68028.72;5049820;28;20067;-79
2022/09/26 12:58:46;;;;;;;11.25;8.82;;;;;;;11.35;100.00;68028.72;5056302;28;20665;-80
2022/09/26 13:01:53;;;;;;;10.65;6.68;;;;;;;11.28;100.00;68016.00;5054887;28;20045;-80